createdAt,value
2022-11-05T00:00:05.165Z,10.10
2022-11-05T00:02:51.826Z,10.10
2022-11-05T00:05:37.251Z,10.10
2022-11-05T00:08:23.621Z,10.10
2022-11-05T00:10:51.646Z,10.10
2022-11-05T00:13:42.225Z,10.10
2022-11-05T00:16:36.521Z,10.10
2022-11-05T00:19:09.888Z,10.00
2022-11-05T00:21:57.082Z,10.10
2022-11-05T00:24:43.027Z,10.10
2022-11-05T00:27:11.258Z,10.10
2022-11-05T00:29:40.225Z,10.00
2022-11-05T00:32:08.456Z,10.00
2022-11-05T00:34:37.717Z,10.00
2022-11-05T00:37:05.724Z,10.00
2022-11-05T00:39:33.605Z,10.00
2022-11-05T00:42:19.113Z,10.00
2022-11-05T00:45:02.472Z,10.00
2022-11-05T00:47:48.418Z,10.10
2022-11-05T00:50:18.199Z,10.00
2022-11-05T00:52:59.696Z,10.00
2022-11-05T00:55:31.132Z,10.10
2022-11-05T00:57:59.277Z,10.10
2022-11-05T01:00:29.044Z,10.10
2022-11-05T01:03:07.467Z,10.10
2022-11-05T01:05:40.562Z,10.10
2022-11-05T01:08:09.712Z,10.10
2022-11-05T01:10:41.734Z,10.10
2022-11-05T01:13:12.927Z,10.10
2022-11-05T01:15:42.189Z,10.10
2022-11-05T01:18:10.765Z,10.10
2022-11-05T01:20:40.235Z,10.10
2022-11-05T01:23:13.234Z,10.10
2022-11-05T01:25:41.565Z,10.10
2022-11-05T01:28:09.724Z,10.10
2022-11-05T01:30:39.443Z,10.10
2022-11-05T01:33:07.770Z,10.10
2022-11-05T01:35:35.880Z,10.00
2022-11-05T01:38:05.136Z,10.00
2022-11-05T01:40:33.146Z,10.00
2022-11-05T01:43:01.030Z,10.00
2022-11-05T01:45:30.009Z,9.90
2022-11-05T01:48:02.871Z,9.90
2022-11-05T01:50:41.822Z,9.90
2022-11-05T01:53:22.798Z,9.80
2022-11-05T01:55:57.349Z,9.80
2022-11-05T01:58:29.788Z,9.80
2022-11-05T02:00:58.552Z,9.80
2022-11-05T02:03:27.324Z,9.70
2022-11-05T02:05:58.321Z,9.70
2022-11-05T02:08:53.175Z,9.80
2022-11-05T02:11:21.667Z,9.80
2022-11-05T02:13:50.528Z,9.80
2022-11-05T02:16:26.819Z,9.80
2022-11-05T02:19:01.079Z,9.80
2022-11-05T02:21:56.550Z,9.80
2022-11-05T02:25:01.259Z,9.80
2022-11-05T02:27:56.086Z,9.80
2022-11-05T02:30:33.872Z,9.80
2022-11-05T02:33:14.596Z,9.80
2022-11-05T02:36:03.199Z,9.80
2022-11-05T02:38:41.541Z,9.80
2022-11-05T02:41:19.548Z,9.80
2022-11-05T02:43:58.278Z,9.80
2022-11-05T02:46:35.359Z,9.80
2022-11-05T02:49:13.708Z,9.80
2022-11-05T02:51:50.030Z,9.80
2022-11-05T02:54:25.304Z,9.80
2022-11-05T02:56:55.341Z,9.80
2022-11-05T02:59:23.372Z,9.80
2022-11-05T03:01:53.929Z,9.80
2022-11-05T03:04:25.660Z,9.80
2022-11-05T03:07:08.711Z,9.80
2022-11-05T03:09:51.986Z,9.80
2022-11-05T03:12:33.649Z,9.80
2022-11-05T03:15:12.671Z,9.80
2022-11-05T03:17:50.363Z,9.80
2022-11-05T03:20:21.740Z,9.80
2022-11-05T03:22:54.804Z,9.80
2022-11-05T03:25:25.148Z,9.80
2022-11-05T03:27:58.898Z,9.80
2022-11-05T03:30:26.972Z,9.80
2022-11-05T03:33:02.835Z,9.80
2022-11-05T03:35:37.400Z,9.80
2022-11-05T03:38:11.870Z,9.80
2022-11-05T03:40:42.338Z,9.80
2022-11-05T03:43:10.661Z,9.70
2022-11-05T03:45:43.291Z,9.70
2022-11-05T03:48:15.902Z,9.70
2022-11-05T03:50:50.264Z,9.70
2022-11-05T03:53:23.477Z,9.70
2022-11-05T03:55:57.665Z,9.70
2022-11-05T03:58:26.936Z,9.70
2022-11-05T04:00:54.917Z,9.60
2022-11-05T04:03:24.219Z,9.60
2022-11-05T04:06:06.336Z,9.60
2022-11-05T04:08:51.632Z,9.60
2022-11-05T04:11:37.133Z,9.60
2022-11-05T04:14:05.155Z,9.50
2022-11-05T04:16:50.570Z,9.50
2022-11-05T04:19:36.574Z,9.50
2022-11-05T04:22:21.972Z,9.50
2022-11-05T04:24:49.852Z,9.50
2022-11-05T04:27:17.839Z,9.50
2022-11-05T04:30:03.357Z,9.50
2022-11-05T04:32:31.278Z,9.40
2022-11-05T04:35:00.516Z,9.40
2022-11-05T04:37:28.404Z,9.40
2022-11-05T04:39:56.283Z,9.40
2022-11-05T04:42:24.145Z,9.30
2022-11-05T04:44:52.046Z,9.30
2022-11-05T04:47:19.879Z,9.30
2022-11-05T04:49:47.744Z,9.30
2022-11-05T04:52:17.878Z,9.30
2022-11-05T04:54:46.057Z,9.20
2022-11-05T04:57:14.116Z,9.20
2022-11-05T04:59:42.142Z,9.20
2022-11-05T05:02:10.111Z,9.10
2022-11-05T05:04:38.099Z,9.10
2022-11-05T05:07:06.131Z,9.10
2022-11-05T05:09:35.349Z,9.00
2022-11-05T05:12:03.520Z,9.00
2022-11-05T05:14:31.462Z,9.00
2022-11-05T05:16:59.314Z,9.00
2022-11-05T05:19:27.592Z,9.00
2022-11-05T05:21:54.478Z,9.00
2022-11-05T05:24:24.886Z,9.00
2022-11-05T05:26:54.135Z,9.00
2022-11-05T05:29:22.006Z,8.90
2022-11-05T05:31:49.924Z,8.90
2022-11-05T05:34:17.863Z,8.90
2022-11-05T05:36:45.881Z,8.90
2022-11-05T05:39:14.581Z,8.90
2022-11-05T05:41:42.456Z,8.90
2022-11-05T05:44:11.698Z,8.90
2022-11-05T05:46:39.737Z,8.90
2022-11-05T05:49:12.165Z,8.90
2022-11-05T05:51:40.512Z,8.80
2022-11-05T05:54:08.408Z,8.80
2022-11-05T05:56:36.296Z,8.80
2022-11-05T05:59:05.669Z,8.90
2022-11-05T06:01:35.143Z,8.90
2022-11-05T06:04:03.174Z,8.90
2022-11-05T06:06:31.017Z,8.90
2022-11-05T06:08:59.035Z,8.90
2022-11-05T06:11:27.057Z,8.90
2022-11-05T06:13:55.318Z,8.90
2022-11-05T06:16:23.350Z,8.90
2022-11-05T06:18:52.809Z,8.90
2022-11-05T06:21:20.744Z,8.90
2022-11-05T06:23:49.781Z,8.90
2022-11-05T06:26:19.667Z,8.90
2022-11-05T06:28:47.798Z,9.00
2022-11-05T06:31:16.518Z,9.00
2022-11-05T06:33:44.969Z,9.00
2022-11-05T06:36:17.099Z,9.00
2022-11-05T06:38:45.173Z,9.00
2022-11-05T06:41:13.054Z,9.00
2022-11-05T06:43:41.032Z,9.00
2022-11-05T06:46:10.506Z,9.00
2022-11-05T06:48:38.433Z,9.00
2022-11-05T06:51:07.133Z,9.00
2022-11-05T06:53:36.546Z,9.00
2022-11-05T06:56:05.807Z,9.00
2022-11-05T06:58:34.636Z,9.00
2022-11-05T07:01:03.534Z,9.00
2022-11-05T07:03:31.885Z,9.00
2022-11-05T07:06:00.860Z,9.00
2022-11-05T07:08:31.725Z,9.00
2022-11-05T07:11:01.391Z,9.00
2022-11-05T07:13:29.309Z,9.00
2022-11-05T07:15:57.643Z,9.10
2022-11-05T07:18:25.877Z,9.10
2022-11-05T07:20:53.712Z,9.10
2022-11-05T07:23:21.613Z,9.10
2022-11-05T07:25:49.482Z,9.10
2022-11-05T07:28:18.843Z,9.10
2022-11-05T07:30:48.130Z,9.10
2022-11-05T07:33:16.069Z,9.20
2022-11-05T07:35:43.941Z,9.20
2022-11-05T07:38:12.306Z,9.20
2022-11-05T07:40:40.215Z,9.20
2022-11-05T07:43:09.650Z,9.20
2022-11-05T07:45:39.159Z,9.20
2022-11-05T07:48:07.650Z,9.30
2022-11-05T07:50:37.581Z,9.30
2022-11-05T07:53:07.796Z,9.30
2022-11-05T07:55:36.043Z,9.30
2022-11-05T07:58:04.487Z,9.30
2022-11-05T08:00:32.449Z,9.40
2022-11-05T08:03:07.637Z,9.30
2022-11-05T08:05:38.075Z,9.40
2022-11-05T08:08:07.504Z,9.40
2022-11-05T08:10:36.611Z,9.40
2022-11-05T08:13:05.435Z,9.40
2022-11-05T08:15:33.634Z,9.50
2022-11-05T08:18:04.598Z,9.50
2022-11-05T08:20:32.928Z,9.50
2022-11-05T08:23:00.993Z,9.60
2022-11-05T08:25:29.614Z,9.70
2022-11-05T08:27:58.477Z,9.70
2022-11-05T08:30:27.167Z,9.70
2022-11-05T08:32:59.368Z,9.80
2022-11-05T08:35:29.693Z,9.80
2022-11-05T08:37:59.159Z,9.90
2022-11-05T08:40:27.529Z,10.00
2022-11-05T08:42:58.270Z,10.00
2022-11-05T08:45:26.638Z,10.10
2022-11-05T08:48:00.389Z,10.20
2022-11-05T08:50:30.301Z,10.20
2022-11-05T08:52:58.386Z,10.30
2022-11-05T08:55:27.056Z,10.40
2022-11-05T08:57:58.341Z,10.40
2022-11-05T09:00:27.024Z,10.50
2022-11-05T09:02:55.136Z,10.50
2022-11-05T09:05:23.090Z,10.50
2022-11-05T09:07:56.472Z,10.60
2022-11-05T09:10:28.350Z,10.70
2022-11-05T09:12:56.489Z,10.60
2022-11-05T09:15:24.492Z,10.60
2022-11-05T09:17:52.751Z,10.70
2022-11-05T09:20:20.714Z,10.70
2022-11-05T09:22:49.628Z,10.70
2022-11-05T09:25:19.094Z,10.80
2022-11-05T09:27:47.027Z,10.80
2022-11-05T09:30:15.124Z,10.90
2022-11-05T09:32:43.107Z,11.00
2022-11-05T09:35:11.341Z,11.10
2022-11-05T09:37:39.465Z,11.50
2022-11-05T09:40:08.327Z,11.80
2022-11-05T09:42:42.492Z,12.10
2022-11-05T09:45:15.946Z,12.20
2022-11-05T09:47:47.084Z,12.50
2022-11-05T09:50:20.118Z,12.70
2022-11-05T09:52:48.166Z,12.80
2022-11-05T09:55:22.016Z,12.90
2022-11-05T09:57:55.420Z,13.20
2022-11-05T10:00:23.486Z,13.50
2022-11-05T10:02:55.503Z,13.70
2022-11-05T10:05:25.894Z,13.90
2022-11-05T10:07:58.084Z,13.90
2022-11-05T10:10:41.003Z,14.00
2022-11-05T10:13:15.644Z,14.00
2022-11-05T10:15:51.833Z,14.10
2022-11-05T10:18:26.025Z,14.20
2022-11-05T10:20:53.896Z,14.20
2022-11-05T10:23:23.288Z,14.30
2022-11-05T10:25:54.682Z,14.30
2022-11-05T10:28:26.027Z,14.40
2022-11-05T10:30:59.160Z,14.30
2022-11-05T10:33:31.788Z,14.40
2022-11-05T10:36:05.480Z,14.50
2022-11-05T10:38:34.625Z,14.50
2022-11-05T10:41:23.396Z,14.50
2022-11-05T10:43:56.082Z,14.40
2022-11-05T10:46:33.395Z,14.40
2022-11-05T10:49:17.152Z,14.30
2022-11-05T10:51:45.540Z,14.10
2022-11-05T10:54:18.021Z,13.90
2022-11-05T10:56:46.013Z,13.80
2022-11-05T10:59:26.205Z,13.60
2022-11-05T11:01:58.697Z,13.40
2022-11-05T11:04:30.332Z,13.20
2022-11-05T11:07:01.138Z,13.20
2022-11-05T11:09:31.423Z,13.30
2022-11-05T11:12:08.468Z,13.70
2022-11-05T11:14:37.738Z,13.90
2022-11-05T11:17:26.891Z,13.90
2022-11-05T11:20:19.751Z,13.80
2022-11-05T11:23:01.669Z,13.90
2022-11-05T11:25:33.450Z,13.80
2022-11-05T11:28:06.820Z,13.70
2022-11-05T11:30:36.215Z,13.50
2022-11-05T11:33:10.408Z,13.40
2022-11-05T11:35:39.715Z,13.00
2022-11-05T11:38:14.422Z,13.00
2022-11-05T11:40:42.630Z,13.00
2022-11-05T11:43:22.628Z,13.00
2022-11-05T11:45:54.627Z,13.10
2022-11-05T11:48:28.454Z,13.10
2022-11-05T11:50:57.372Z,13.10
2022-11-05T11:53:32.101Z,13.30
2022-11-05T11:56:03.514Z,13.30
2022-11-05T11:58:43.836Z,13.10
2022-11-05T12:01:36.989Z,13.00
2022-11-05T12:04:14.872Z,13.00
2022-11-05T12:06:52.309Z,12.90
2022-11-05T12:09:26.022Z,12.90
2022-11-05T12:12:04.017Z,12.80
2022-11-05T12:14:40.205Z,12.90
2022-11-05T12:17:31.126Z,12.80
2022-11-05T12:20:12.386Z,12.70
2022-11-05T12:23:08.523Z,12.80
2022-11-05T12:25:46.552Z,12.80
2022-11-05T12:29:12.193Z,12.70
2022-11-05T12:31:38.212Z,12.70
2022-11-05T12:34:24.337Z,12.60
2022-11-05T12:37:11.610Z,12.70
2022-11-05T12:39:50.597Z,12.80
2022-11-05T12:42:33.691Z,12.70
2022-11-05T12:45:05.946Z,12.70
2022-11-05T12:47:45.250Z,12.80
2022-11-05T12:50:23.434Z,12.90
2022-11-05T12:53:04.519Z,13.00
2022-11-05T12:55:36.063Z,13.20
2022-11-05T12:58:11.160Z,13.30
2022-11-05T13:00:41.770Z,13.50
2022-11-05T13:03:26.395Z,13.60
2022-11-05T13:06:05.707Z,13.60
2022-11-05T13:08:40.344Z,13.70
2022-11-05T13:11:16.849Z,13.80
2022-11-05T13:13:51.962Z,13.80
2022-11-05T13:16:27.008Z,13.80
2022-11-05T13:19:00.134Z,13.80
2022-11-05T13:21:31.035Z,13.80
2022-11-05T13:24:05.146Z,13.80
2022-11-05T13:26:39.126Z,13.70
2022-11-05T13:29:12.799Z,13.70
2022-11-05T13:31:44.498Z,13.60
2022-11-05T13:34:13.704Z,13.60
2022-11-05T13:37:11.386Z,13.60
2022-11-05T13:39:46.769Z,13.50
2022-11-05T13:42:36.058Z,13.40
2022-11-05T13:45:30.534Z,13.40
2022-11-05T13:48:21.993Z,13.30
2022-11-05T13:51:07.851Z,13.30
2022-11-05T13:53:56.009Z,13.40
2022-11-05T13:56:42.469Z,13.50
2022-11-05T13:59:36.685Z,13.50
2022-11-05T14:02:12.636Z,13.40
2022-11-05T14:04:46.120Z,13.30
2022-11-05T14:07:18.737Z,13.10
2022-11-05T14:09:53.160Z,13.00
2022-11-05T14:12:24.365Z,12.90
2022-11-05T14:14:58.906Z,12.80
2022-11-05T14:17:32.119Z,12.60
2022-11-05T14:20:27.740Z,12.60
2022-11-05T14:23:28.531Z,12.50
2022-11-05T14:26:12.196Z,12.40
2022-11-05T14:28:51.808Z,12.30
2022-11-05T14:32:02.728Z,12.20
2022-11-05T14:34:25.403Z,12.20
2022-11-05T14:37:30.970Z,12.00
2022-11-05T14:40:23.764Z,11.90
2022-11-05T14:42:55.079Z,11.90
2022-11-05T14:45:29.283Z,11.90
2022-11-05T14:47:59.200Z,11.80
2022-11-05T14:50:34.497Z,11.80
2022-11-05T14:53:21.483Z,11.70
2022-11-05T14:55:59.836Z,11.70
2022-11-05T14:58:36.447Z,11.60
2022-11-05T15:01:06.831Z,11.60
2022-11-05T15:04:00.940Z,11.50
2022-11-05T15:06:31.998Z,11.40
2022-11-05T15:09:19.490Z,11.40
2022-11-05T15:12:04.035Z,11.30
2022-11-05T15:14:36.081Z,11.30
2022-11-05T15:17:15.132Z,11.20
2022-11-05T15:19:44.036Z,11.20
2022-11-05T15:22:26.887Z,11.20
2022-11-05T15:24:55.653Z,11.00
2022-11-05T15:27:39.434Z,11.00
2022-11-05T15:30:16.456Z,11.00
2022-11-05T15:32:44.595Z,10.90
2022-11-05T15:35:21.295Z,10.90
2022-11-05T15:37:53.568Z,10.80
2022-11-05T15:40:27.522Z,10.80
2022-11-05T15:43:19.361Z,10.70
2022-11-05T15:46:04.643Z,10.60
2022-11-05T15:48:33.504Z,10.60
2022-11-05T15:51:01.886Z,10.50
2022-11-05T15:53:56.032Z,10.30
2022-11-05T15:56:29.332Z,10.30
2022-11-05T15:59:01.758Z,10.30
2022-11-05T16:01:36.354Z,10.30
2022-11-05T16:04:17.187Z,10.20
2022-11-05T16:06:48.726Z,10.10
2022-11-05T16:09:25.501Z,10.00
2022-11-05T16:12:15.633Z,9.90
2022-11-05T16:14:43.644Z,9.80
2022-11-05T16:17:20.060Z,9.70
2022-11-05T16:19:48.769Z,9.70
2022-11-05T16:22:17.259Z,9.60
2022-11-05T16:24:45.803Z,9.60
2022-11-05T16:27:19.484Z,9.60
2022-11-05T16:29:51.198Z,9.60
2022-11-05T16:32:29.806Z,9.50
2022-11-05T16:35:00.711Z,9.50
2022-11-05T16:37:30.821Z,9.50
2022-11-05T16:39:58.639Z,9.40
2022-11-05T16:42:40.875Z,9.40
2022-11-05T16:45:11.557Z,9.30
2022-11-05T16:47:41.096Z,9.30
2022-11-05T16:50:18.816Z,9.30
2022-11-05T16:52:47.441Z,9.20
2022-11-05T16:55:16.677Z,9.10
2022-11-05T16:57:46.603Z,9.10
2022-11-05T17:00:17.489Z,9.00
2022-11-05T17:02:46.895Z,9.00
2022-11-05T17:05:23.185Z,9.10
2022-11-05T17:07:51.455Z,9.10
2022-11-05T17:10:19.956Z,9.10
2022-11-05T17:12:48.785Z,9.00
2022-11-05T17:15:19.244Z,9.00
2022-11-05T17:17:48.805Z,8.90
2022-11-05T17:20:26.299Z,8.80
2022-11-05T17:22:54.191Z,8.60
2022-11-05T17:25:22.127Z,8.70
2022-11-05T17:27:50.551Z,8.60
2022-11-05T17:30:18.899Z,8.50
2022-11-05T17:32:52.758Z,8.50
2022-11-05T17:35:20.834Z,8.50
2022-11-05T17:37:48.853Z,8.60
2022-11-05T17:40:21.444Z,8.50
2022-11-05T17:42:49.643Z,8.50
2022-11-05T17:45:17.800Z,8.50
2022-11-05T17:47:45.923Z,8.40
2022-11-05T17:50:18.567Z,8.40
2022-11-05T17:52:46.511Z,8.40
2022-11-05T17:55:19.156Z,8.40
2022-11-05T17:57:48.558Z,8.30
2022-11-05T18:00:18.230Z,8.20
2022-11-05T18:02:48.396Z,8.10
2022-11-05T18:05:18.663Z,8.10
2022-11-05T18:07:47.662Z,8.10
2022-11-05T18:10:16.822Z,8.10
2022-11-05T18:12:45.292Z,8.10
2022-11-05T18:15:14.045Z,8.10
2022-11-05T18:17:42.481Z,8.10
2022-11-05T18:20:18.472Z,8.00
2022-11-05T18:22:50.650Z,7.90
2022-11-05T18:25:20.048Z,7.90
2022-11-05T18:27:47.951Z,7.90
2022-11-05T18:30:16.148Z,7.90
2022-11-05T18:32:44.725Z,7.80
2022-11-05T18:35:13.476Z,7.80
2022-11-05T18:37:41.752Z,7.80
2022-11-05T18:40:12.266Z,7.80
2022-11-05T18:42:40.166Z,7.80
2022-11-05T18:45:09.718Z,7.80
2022-11-05T18:47:37.923Z,7.70
2022-11-05T18:50:08.005Z,7.70
2022-11-05T18:52:35.878Z,7.60
2022-11-05T18:55:03.732Z,7.70
2022-11-05T18:57:34.680Z,7.80
2022-11-05T19:00:02.797Z,7.80
2022-11-05T19:02:31.165Z,7.80
2022-11-05T19:05:28.488Z,7.80
2022-11-05T19:07:47.526Z,7.90
2022-11-05T19:10:15.768Z,7.90
2022-11-05T19:12:45.018Z,7.90
2022-11-05T19:15:14.084Z,7.80
2022-11-05T19:17:42.037Z,7.80
2022-11-05T19:20:10.700Z,7.80
2022-11-05T19:22:38.682Z,7.90
2022-11-05T19:25:07.722Z,7.90
2022-11-05T19:27:36.590Z,7.90
2022-11-05T19:30:07.365Z,7.90
2022-11-05T19:32:35.328Z,7.80
2022-11-05T19:35:03.283Z,7.80
2022-11-05T19:37:31.169Z,7.70
2022-11-05T19:39:59.155Z,7.70
2022-11-05T19:42:29.318Z,7.70
2022-11-05T19:45:03.174Z,7.70
2022-11-05T19:47:46.150Z,7.60
2022-11-05T19:50:13.942Z,7.60
2022-11-05T19:52:42.181Z,7.50
2022-11-05T19:55:12.319Z,7.50
2022-11-05T19:57:40.463Z,7.40
2022-11-05T20:00:09.694Z,7.40
2022-11-05T20:02:37.702Z,7.40
2022-11-05T20:05:07.363Z,7.40
2022-11-05T20:07:35.198Z,7.40
2022-11-05T20:10:03.130Z,7.40
2022-11-05T20:12:31.286Z,7.30
2022-11-05T20:14:59.180Z,7.30
2022-11-05T20:17:26.996Z,7.20
2022-11-05T20:19:56.016Z,7.20
2022-11-05T20:22:28.262Z,7.20
2022-11-05T20:24:56.086Z,7.20
2022-11-05T20:27:23.919Z,7.30
2022-11-05T20:29:52.080Z,7.20
2022-11-05T20:32:19.968Z,7.20
2022-11-05T20:34:47.803Z,7.10
2022-11-05T20:37:15.677Z,7.10
2022-11-05T20:39:46.294Z,7.10
2022-11-05T20:42:14.498Z,7.20
2022-11-05T20:44:42.376Z,7.20
2022-11-05T20:47:10.239Z,7.10
2022-11-05T20:49:38.124Z,7.10
2022-11-05T20:52:06.040Z,7.10
2022-11-05T20:54:34.002Z,7.10
2022-11-05T20:57:03.202Z,7.00
2022-11-05T20:59:31.457Z,7.10
2022-11-05T21:01:59.374Z,7.10
2022-11-05T21:04:27.390Z,7.10
2022-11-05T21:06:55.376Z,7.20
2022-11-05T21:09:23.235Z,7.10
2022-11-05T21:12:17.121Z,7.20
2022-11-05T21:14:46.665Z,7.20
2022-11-05T21:17:14.797Z,7.10
2022-11-05T21:19:42.639Z,7.10
2022-11-05T21:22:15.073Z,7.10
2022-11-05T21:24:43.560Z,7.10
2022-11-05T21:27:11.453Z,7.10
2022-11-05T21:29:39.487Z,7.10
2022-11-05T21:32:08.825Z,7.10
2022-11-05T21:34:36.677Z,7.10
2022-11-05T21:37:05.576Z,7.10
2022-11-05T21:39:34.777Z,7.10
2022-11-05T21:42:03.011Z,7.10
2022-11-05T21:44:31.104Z,7.10
2022-11-05T21:46:59.459Z,7.10
2022-11-05T21:49:28.726Z,7.10
2022-11-05T21:52:14.139Z,7.10
2022-11-05T21:54:59.496Z,7.10
2022-11-05T21:57:44.946Z,7.10
2022-11-05T22:00:13.684Z,7.10
2022-11-05T22:02:41.798Z,7.10
2022-11-05T22:05:11.628Z,7.10
2022-11-05T22:07:40.773Z,7.10
2022-11-05T22:10:15.865Z,7.20
2022-11-05T22:12:45.891Z,7.10
2022-11-05T22:15:13.837Z,7.10
2022-11-05T22:17:46.546Z,7.10
2022-11-05T22:20:16.640Z,7.10
2022-11-05T22:22:45.761Z,7.20
2022-11-05T22:25:15.961Z,7.20
2022-11-05T22:27:44.158Z,7.20
2022-11-05T22:30:13.888Z,7.20
2022-11-05T22:32:41.753Z,7.10
2022-11-05T22:35:11.462Z,7.10
2022-11-05T22:37:40.741Z,7.10
2022-11-05T22:40:09.834Z,7.10
2022-11-05T22:42:38.088Z,7.00
2022-11-05T22:45:08.300Z,7.00
2022-11-05T22:47:36.267Z,7.00
2022-11-05T22:50:04.491Z,7.00
2022-11-05T22:52:32.851Z,7.00
2022-11-05T22:55:03.524Z,7.00
2022-11-05T22:57:31.359Z,7.00
2022-11-05T22:59:59.219Z,6.90
2022-11-05T23:02:27.227Z,6.90
2022-11-05T23:04:55.191Z,6.80
2022-11-05T23:07:40.398Z,6.80
2022-11-05T23:10:27.970Z,6.90
2022-11-05T23:12:56.117Z,6.90
2022-11-05T23:15:41.437Z,6.80
2022-11-05T23:18:28.056Z,6.80
2022-11-05T23:21:13.829Z,6.70
2022-11-05T23:23:59.041Z,6.70
2022-11-05T23:26:45.494Z,6.70
2022-11-05T23:29:13.337Z,6.70
2022-11-05T23:31:59.093Z,6.80
2022-11-05T23:34:27.220Z,6.70
2022-11-05T23:37:12.639Z,6.70
2022-11-05T23:39:42.958Z,6.70
2022-11-05T23:42:30.284Z,6.70
2022-11-05T23:45:15.922Z,6.60
2022-11-05T23:48:01.580Z,6.50
2022-11-05T23:50:33.233Z,6.50
2022-11-05T23:53:05.007Z,6.50
2022-11-05T23:55:32.969Z,6.50
2022-11-05T23:58:02.484Z,6.60
